createdAt,value
2019-04-28T00:01:34.896Z,29.12
2019-04-28T00:04:04.660Z,28.67
2019-04-28T00:06:34.440Z,25.62
2019-04-28T00:09:05.028Z,27.10
2019-04-28T00:11:34.690Z,28.32
2019-04-28T00:14:04.209Z,30.50
2019-04-28T00:16:33.681Z,28.20
2019-04-28T00:19:03.265Z,24.92
2019-04-28T00:21:41.565Z,24.80
2019-04-28T00:24:25.532Z,24.85
2019-04-28T00:27:01.646Z,25.50
2019-04-28T00:29:38.660Z,25.10
2019-04-28T00:32:02.124Z,24.23
2019-04-28T00:34:31.576Z,24.05
2019-04-28T00:37:21.104Z,28.10
2019-04-28T00:39:51.046Z,23.80
2019-04-28T00:42:22.614Z,23.85
2019-04-28T00:44:51.633Z,28.17
2019-04-28T00:47:21.166Z,29.48
2019-04-28T00:49:51.942Z,24.80
2019-04-28T00:52:22.275Z,25.48
2019-04-28T00:54:52.518Z,25.15
2019-04-28T00:57:22.608Z,24.15
2019-04-28T00:59:58.080Z,26.30
2019-04-28T01:02:31.009Z,31.37
2019-04-28T01:05:01.551Z,25.87
2019-04-28T01:07:33.003Z,25.50
2019-04-28T01:10:03.088Z,24.65
2019-04-28T01:12:32.511Z,27.52
2019-04-28T01:15:04.794Z,24.10
2019-04-28T01:18:04.738Z,25.37
2019-04-28T01:20:34.198Z,25.37
2019-04-28T01:23:03.607Z,25.50
2019-04-28T01:25:33.877Z,22.95
2019-04-28T01:28:03.424Z,24.67
2019-04-28T01:30:50.730Z,24.10
2019-04-28T01:33:44.898Z,24.70
2019-04-28T01:36:14.369Z,28.02
2019-04-28T01:38:43.771Z,23.40
2019-04-28T01:41:13.383Z,26.05
2019-04-28T01:43:42.982Z,21.70
2019-04-28T01:46:12.449Z,24.43
2019-04-28T01:48:42.201Z,20.77
2019-04-28T01:51:11.621Z,20.08
2019-04-28T01:53:41.071Z,20.77
2019-04-28T01:56:10.771Z,20.52
2019-04-28T01:58:40.431Z,21.50
2019-04-28T02:01:11.092Z,18.73
2019-04-28T02:03:40.776Z,20.60
2019-04-28T02:06:10.183Z,18.52
2019-04-28T02:08:40.125Z,16.10
2019-04-28T02:11:10.170Z,18.35
2019-04-28T02:13:39.900Z,19.17
2019-04-28T02:16:09.802Z,14.85
2019-04-28T02:18:39.988Z,16.97
2019-04-28T02:21:39.552Z,18.35
2019-04-28T02:24:26.856Z,18.02
2019-04-28T02:26:56.395Z,17.95
2019-04-28T02:29:25.856Z,15.00
2019-04-28T02:31:55.628Z,16.47
2019-04-28T02:34:25.058Z,15.83
2019-04-28T02:36:54.465Z,18.57
2019-04-28T02:39:24.286Z,15.98
2019-04-28T02:41:53.739Z,20.00
2019-04-28T02:44:23.746Z,16.32
2019-04-28T02:46:53.851Z,15.73
2019-04-28T02:49:31.805Z,18.00
2019-04-28T02:52:10.742Z,17.37
2019-04-28T02:54:40.453Z,15.90
2019-04-28T02:57:10.808Z,17.67
2019-04-28T02:59:44.535Z,16.67
2019-04-28T03:02:11.699Z,17.85
2019-04-28T03:04:41.204Z,17.40
2019-04-28T03:07:11.429Z,18.02
2019-04-28T03:09:42.204Z,15.95
2019-04-28T03:12:11.616Z,13.68
2019-04-28T03:14:44.034Z,15.28
2019-04-28T03:17:12.225Z,16.60
2019-04-28T03:19:41.958Z,17.65
2019-04-28T03:22:11.782Z,16.55
2019-04-28T03:24:42.333Z,16.85
2019-04-28T03:27:23.268Z,17.40
2019-04-28T03:29:56.983Z,14.38
2019-04-28T03:32:45.705Z,13.98
2019-04-28T03:35:04.524Z,16.60
2019-04-28T03:37:34.016Z,14.65
2019-04-28T03:40:03.957Z,17.37
2019-04-28T03:42:33.380Z,14.45
2019-04-28T03:45:04.405Z,18.12
2019-04-28T03:47:33.781Z,13.95
2019-04-28T03:50:03.271Z,16.15
2019-04-28T03:52:33.032Z,15.73
2019-04-28T03:55:02.526Z,17.52
2019-04-28T03:57:32.000Z,18.07
2019-04-28T04:00:01.905Z,16.82
2019-04-28T04:02:31.718Z,20.10
2019-04-28T04:05:03.799Z,15.85
2019-04-28T04:07:32.396Z,16.25
2019-04-28T04:10:11.190Z,21.03
2019-04-28T04:12:53.352Z,19.65
2019-04-28T04:15:48.646Z,16.17
2019-04-28T04:18:21.073Z,16.48
2019-04-28T04:20:51.401Z,19.40
2019-04-28T04:23:23.254Z,18.57
2019-04-28T04:25:52.466Z,19.87
2019-04-28T04:28:21.949Z,19.40
2019-04-28T04:30:51.486Z,17.73
2019-04-28T04:33:21.099Z,18.20
2019-04-28T04:35:51.667Z,19.10
2019-04-28T04:38:21.961Z,16.17
2019-04-28T04:40:51.627Z,19.75
2019-04-28T04:43:23.324Z,17.80
2019-04-28T04:46:14.188Z,19.30
2019-04-28T04:48:44.700Z,15.20
2019-04-28T04:51:14.107Z,15.78
2019-04-28T04:53:43.555Z,16.52
2019-04-28T04:56:13.418Z,19.67
2019-04-28T04:58:42.882Z,14.45
2019-04-28T05:01:34.284Z,14.10
2019-04-28T05:04:16.303Z,14.35
2019-04-28T05:06:45.751Z,16.02
2019-04-28T05:09:15.432Z,16.17
2019-04-28T05:11:44.856Z,15.05
2019-04-28T05:14:14.448Z,14.40
2019-04-28T05:16:44.277Z,16.67
2019-04-28T05:19:13.818Z,15.55
2019-04-28T05:21:43.502Z,20.00
2019-04-28T05:24:37.662Z,19.83
2019-04-28T05:27:07.334Z,15.83
2019-04-28T05:29:36.891Z,17.27
2019-04-28T05:32:06.672Z,19.35
2019-04-28T05:34:39.849Z,17.82
2019-04-28T05:37:07.247Z,15.08
2019-04-28T05:39:38.625Z,17.40
2019-04-28T05:42:11.031Z,18.42
2019-04-28T05:44:40.625Z,16.87
2019-04-28T05:47:10.075Z,12.28
2019-04-28T05:50:01.490Z,16.97
2019-04-28T05:52:52.734Z,13.68
2019-04-28T05:55:27.998Z,16.90
2019-04-28T05:58:09.877Z,15.85
2019-04-28T06:01:01.193Z,18.57
2019-04-28T06:03:31.856Z,14.90
2019-04-28T06:06:01.307Z,14.10
2019-04-28T06:08:40.741Z,12.50
2019-04-28T06:11:30.224Z,12.50
2019-04-28T06:13:59.971Z,14.63
2019-04-28T06:16:30.418Z,12.37
2019-04-28T06:19:00.638Z,11.75
2019-04-28T06:21:30.084Z,11.48
2019-04-28T06:23:59.914Z,10.60
2019-04-28T06:26:29.460Z,12.47
2019-04-28T06:28:59.113Z,11.07
2019-04-28T06:31:28.612Z,12.30
2019-04-28T06:33:58.187Z,9.40
2019-04-28T06:36:27.905Z,11.33
2019-04-28T06:38:57.447Z,12.53
2019-04-28T06:41:26.916Z,8.13
2019-04-28T06:43:56.633Z,11.80
2019-04-28T06:46:26.040Z,9.33
2019-04-28T06:48:55.494Z,11.35
2019-04-28T06:51:25.273Z,13.03
2019-04-28T06:53:54.737Z,11.75
2019-04-28T06:56:24.179Z,11.10
2019-04-28T06:58:59.291Z,12.63
2019-04-28T07:01:25.015Z,18.23
2019-04-28T07:03:54.476Z,10.95
2019-04-28T07:06:24.009Z,12.15
2019-04-28T07:08:53.606Z,9.98
2019-04-28T07:11:23.088Z,7.12
2019-04-28T07:13:52.562Z,8.23
2019-04-28T07:16:22.280Z,11.08
2019-04-28T07:18:51.789Z,9.50
2019-04-28T07:21:43.270Z,10.65
2019-04-28T07:24:12.833Z,10.37
2019-04-28T07:26:42.631Z,11.15
2019-04-28T07:29:12.100Z,15.98
2019-04-28T07:31:41.585Z,14.05
2019-04-28T07:34:11.205Z,12.75
2019-04-28T07:36:40.697Z,11.25
2019-04-28T07:39:10.228Z,9.65
2019-04-28T07:41:39.944Z,11.40
2019-04-28T07:44:09.471Z,10.58
2019-04-28T07:46:38.901Z,41.65
2019-04-28T07:49:08.472Z,9.78
2019-04-28T07:51:54.669Z,10.93
2019-04-28T07:54:24.216Z,11.40
2019-04-28T07:56:53.845Z,15.68
2019-04-28T07:59:23.362Z,12.33
2019-04-28T08:01:52.818Z,13.90
2019-04-28T08:04:22.442Z,10.35
2019-04-28T08:06:51.974Z,12.55
2019-04-28T08:09:21.744Z,10.70
2019-04-28T08:11:51.304Z,9.70
2019-04-28T08:14:20.834Z,7.87
2019-04-28T08:16:50.364Z,12.33
2019-04-28T08:19:19.935Z,8.15
2019-04-28T08:21:49.392Z,8.30
2019-04-28T08:24:19.003Z,10.47
2019-04-28T08:26:48.421Z,8.28
2019-04-28T08:29:17.885Z,9.38
2019-04-28T08:31:59.994Z,8.35
2019-04-28T08:34:29.876Z,8.73
2019-04-28T08:36:59.348Z,11.60
2019-04-28T08:39:29.040Z,7.95
2019-04-28T08:41:58.534Z,10.10
2019-04-28T08:44:28.379Z,13.28
2019-04-28T08:46:57.979Z,10.88
2019-04-28T08:49:27.344Z,9.20
2019-04-28T08:51:58.154Z,10.57
2019-04-28T08:54:27.760Z,10.60
2019-04-28T08:56:57.444Z,10.40
2019-04-28T08:59:26.975Z,9.88
2019-04-28T09:01:56.418Z,9.70
2019-04-28T09:04:26.107Z,10.60
2019-04-28T09:06:55.509Z,9.98
2019-04-28T09:09:25.122Z,11.08
2019-04-28T09:11:54.845Z,10.72
2019-04-28T09:14:24.320Z,12.03
2019-04-28T09:16:54.063Z,15.50
2019-04-28T09:19:23.630Z,20.45
2019-04-28T09:21:53.079Z,13.80
2019-04-28T09:24:22.810Z,12.60
2019-04-28T09:26:52.273Z,14.50
2019-04-28T09:29:22.054Z,12.80
2019-04-28T09:31:52.715Z,15.15
2019-04-28T09:34:28.164Z,11.70
2019-04-28T09:36:53.649Z,12.83
2019-04-28T09:39:43.741Z,11.15
2019-04-28T09:42:31.013Z,12.93
2019-04-28T09:45:01.290Z,11.88
2019-04-28T09:47:31.178Z,12.45
2019-04-28T09:50:00.841Z,14.80
2019-04-28T09:52:30.311Z,12.70
2019-04-28T09:54:59.741Z,13.88
2019-04-28T09:57:29.465Z,14.50
2019-04-28T09:59:58.955Z,15.93
2019-04-28T10:02:28.410Z,12.10
2019-04-28T10:04:58.198Z,12.70
2019-04-28T10:07:27.648Z,15.18
2019-04-28T10:09:57.201Z,16.55
2019-04-28T10:12:27.548Z,14.38
2019-04-28T10:14:57.017Z,15.25
2019-04-28T10:17:26.425Z,12.83
2019-04-28T10:19:56.477Z,13.55
2019-04-28T10:22:26.066Z,12.80
2019-04-28T10:24:55.837Z,12.20
2019-04-28T10:27:25.284Z,14.85
2019-04-28T10:29:54.759Z,13.73
2019-04-28T10:32:24.470Z,12.65
2019-04-28T10:34:55.262Z,31.90
2019-04-28T10:37:25.285Z,14.45
2019-04-28T10:39:59.007Z,13.88
2019-04-28T10:42:28.447Z,11.60
2019-04-28T10:44:58.163Z,13.45
2019-04-28T10:47:27.786Z,12.50
2019-04-28T10:49:58.509Z,12.67
2019-04-28T10:52:27.944Z,9.73
2019-04-28T10:54:57.649Z,12.97
2019-04-28T10:57:27.344Z,11.65
2019-04-28T10:59:56.897Z,15.13
2019-04-28T11:02:26.358Z,12.88
2019-04-28T11:05:09.167Z,14.45
2019-04-28T11:07:38.952Z,12.98
2019-04-28T11:10:15.204Z,18.32
2019-04-28T11:12:44.695Z,17.80
2019-04-28T11:15:25.022Z,11.60
2019-04-28T11:17:54.640Z,12.07
2019-04-28T11:20:25.310Z,11.33
2019-04-28T11:22:54.855Z,12.33
2019-04-28T11:25:24.381Z,13.08
2019-04-28T11:27:55.563Z,13.68
2019-04-28T11:30:25.603Z,14.03
2019-04-28T11:33:09.877Z,67.35
2019-04-28T11:35:39.836Z,13.30
2019-04-28T11:38:09.512Z,14.58
2019-04-28T11:40:38.986Z,10.85
2019-04-28T11:43:08.720Z,11.00
2019-04-28T11:45:38.189Z,12.50
2019-04-28T11:48:07.804Z,13.30
2019-04-28T11:50:37.751Z,14.87
2019-04-28T11:53:07.171Z,13.72
2019-04-28T11:55:36.929Z,11.33
2019-04-28T11:58:06.866Z,14.80
2019-04-28T12:00:36.383Z,13.75
2019-04-28T12:03:05.831Z,19.87
2019-04-28T12:05:44.328Z,12.57
2019-04-28T12:08:14.100Z,13.38
2019-04-28T12:10:52.622Z,12.55
2019-04-28T12:13:43.946Z,10.63
2019-04-28T12:16:50.958Z,14.57
2019-04-28T12:19:45.371Z,13.58
2019-04-28T12:22:14.837Z,11.48
2019-04-28T12:24:44.323Z,11.57
2019-04-28T12:27:13.978Z,11.08
2019-04-28T12:29:43.428Z,9.35
2019-04-28T12:32:12.952Z,10.55
2019-04-28T12:34:42.457Z,9.95
2019-04-28T12:37:12.021Z,10.23
2019-04-28T12:39:41.571Z,10.53
2019-04-28T12:42:11.220Z,10.35
2019-04-28T12:44:40.827Z,12.60
2019-04-28T12:47:10.776Z,11.90
2019-04-28T12:50:02.257Z,11.08
2019-04-28T12:52:31.781Z,11.33
2019-04-28T12:55:01.270Z,9.60
2019-04-28T12:57:30.873Z,10.28
2019-04-28T13:00:15.840Z,10.15
2019-04-28T13:03:04.289Z,10.70
2019-04-28T13:05:36.374Z,10.63
2019-04-28T13:08:05.814Z,9.45
2019-04-28T13:10:35.307Z,9.10
2019-04-28T13:13:05.241Z,9.65
2019-04-28T13:15:34.809Z,11.33
2019-04-28T13:18:04.300Z,8.83
2019-04-28T13:20:33.990Z,10.70
2019-04-28T13:23:03.568Z,12.18
2019-04-28T13:25:33.295Z,11.00
2019-04-28T13:28:02.744Z,10.37
2019-04-28T13:30:32.242Z,11.80
2019-04-28T13:33:01.924Z,9.05
2019-04-28T13:35:31.702Z,10.80
2019-04-28T13:38:01.452Z,17.50
2019-04-28T13:40:33.775Z,10.73
2019-04-28T13:43:03.247Z,9.63
2019-04-28T13:45:32.849Z,12.95
2019-04-28T13:48:02.282Z,10.32
2019-04-28T13:50:39.196Z,12.10
2019-04-28T13:53:10.686Z,11.85
2019-04-28T13:56:05.407Z,16.30
2019-04-28T13:58:38.363Z,13.78
2019-04-28T14:01:33.144Z,13.90
2019-04-28T14:04:17.690Z,11.50
2019-04-28T14:06:49.914Z,14.50
2019-04-28T14:09:19.741Z,12.63
2019-04-28T14:11:49.307Z,13.00
2019-04-28T14:14:20.129Z,14.13
2019-04-28T14:16:49.603Z,14.00
2019-04-28T14:19:19.142Z,12.15
2019-04-28T14:21:48.893Z,14.45
2019-04-28T14:24:18.429Z,17.07
2019-04-28T14:26:48.152Z,19.95
2019-04-28T14:29:17.645Z,16.05
2019-04-28T14:31:47.113Z,16.90
2019-04-28T14:34:16.856Z,14.35
2019-04-28T14:36:46.342Z,15.00
2019-04-28T14:39:15.946Z,15.00
2019-04-28T14:41:45.545Z,16.90
2019-04-28T14:44:17.581Z,16.93
2019-04-28T14:46:46.136Z,16.15
2019-04-28T14:49:15.596Z,16.17
2019-04-28T14:51:45.262Z,19.50
2019-04-28T14:54:14.698Z,19.77
2019-04-28T14:56:44.225Z,25.15
2019-04-28T14:59:13.810Z,21.33
2019-04-28T15:02:08.379Z,25.20
2019-04-28T15:04:55.695Z,21.10
2019-04-28T15:07:42.885Z,24.20
2019-04-28T15:10:21.713Z,23.92
2019-04-28T15:12:51.595Z,24.57
2019-04-28T15:15:21.353Z,25.52
2019-04-28T15:17:50.875Z,36.13
2019-04-28T15:20:20.392Z,26.45
2019-04-28T15:22:50.163Z,25.27
2019-04-28T15:25:19.583Z,24.10
2019-04-28T15:27:49.065Z,26.87
2019-04-28T15:30:18.886Z,26.75
2019-04-28T15:32:48.420Z,25.82
2019-04-28T15:35:18.284Z,29.18
2019-04-28T15:37:47.755Z,28.87
2019-04-28T15:40:17.397Z,27.65
2019-04-28T15:42:46.838Z,31.12
2019-04-28T15:45:16.439Z,30.82
2019-04-28T15:47:47.328Z,28.53
2019-04-28T15:50:17.404Z,25.63
2019-04-28T15:52:47.207Z,25.07
2019-04-28T15:55:20.537Z,31.02
2019-04-28T15:57:50.070Z,29.42
2019-04-28T16:00:20.234Z,30.23
2019-04-28T16:02:49.658Z,29.30
2019-04-28T16:05:19.521Z,28.87
2019-04-28T16:07:48.973Z,26.83
2019-04-28T16:10:18.447Z,28.73
2019-04-28T16:12:48.210Z,28.10
2019-04-28T16:15:17.632Z,22.98
2019-04-28T16:17:47.413Z,19.03
2019-04-28T16:20:16.989Z,20.57
2019-04-28T16:22:46.485Z,18.87
2019-04-28T16:25:16.309Z,22.80
2019-04-28T16:27:45.764Z,21.30
2019-04-28T16:30:15.742Z,20.75
2019-04-28T16:32:45.197Z,20.10
2019-04-28T16:35:14.867Z,39.67
2019-04-28T16:37:44.343Z,20.60
2019-04-28T16:40:13.849Z,18.55
2019-04-28T16:42:49.678Z,20.68
2019-04-28T16:45:20.596Z,20.72
2019-04-28T16:47:50.042Z,20.62
2019-04-28T16:50:19.504Z,22.82
2019-04-28T16:52:49.386Z,22.82
2019-04-28T16:55:22.709Z,23.18
2019-04-28T16:58:05.426Z,22.40
2019-04-28T17:00:57.006Z,29.60
2019-04-28T17:03:28.045Z,24.15
2019-04-28T17:05:57.545Z,22.00
2019-04-28T17:08:27.057Z,23.62
2019-04-28T17:10:57.085Z,24.87
2019-04-28T17:13:26.559Z,24.92
2019-04-28T17:15:56.150Z,26.80
2019-04-28T17:18:25.767Z,24.65
2019-04-28T17:20:55.236Z,24.98
2019-04-28T17:23:24.912Z,28.37
2019-04-28T17:25:54.429Z,22.05
2019-04-28T17:28:23.872Z,21.97
2019-04-28T17:30:53.497Z,27.48
2019-04-28T17:33:22.920Z,22.70
2019-04-28T17:35:52.386Z,41.58
2019-04-28T17:38:22.155Z,28.27
2019-04-28T17:40:51.578Z,25.83
2019-04-28T17:43:21.035Z,31.40
2019-04-28T17:45:51.014Z,30.65
2019-04-28T17:48:25.755Z,29.52
2019-04-28T17:50:55.212Z,30.62
2019-04-28T17:53:24.625Z,31.05
2019-04-28T17:55:54.305Z,31.23
2019-04-28T17:58:23.807Z,30.63
2019-04-28T18:01:09.401Z,36.25
2019-04-28T18:03:52.822Z,29.77
2019-04-28T18:06:23.459Z,28.10
2019-04-28T18:08:53.011Z,28.47
2019-04-28T18:11:23.075Z,29.98
2019-04-28T18:13:52.591Z,39.42
2019-04-28T18:16:44.786Z,43.02
2019-04-28T18:19:14.498Z,62.00
2019-04-28T18:21:44.280Z,47.80
2019-04-28T18:24:13.785Z,28.97
2019-04-28T18:26:43.361Z,28.15
2019-04-28T18:29:12.914Z,23.18
2019-04-28T18:32:13.321Z,34.98
2019-04-28T18:34:54.550Z,35.38
2019-04-28T18:37:42.937Z,25.33
2019-04-28T18:40:34.174Z,24.72
2019-04-28T18:43:22.989Z,27.67
2019-04-28T18:45:52.448Z,25.55
2019-04-28T18:48:22.055Z,31.48
2019-04-28T18:50:51.503Z,28.77
2019-04-28T18:53:21.175Z,38.58
2019-04-28T18:55:50.598Z,39.45
2019-04-28T18:58:20.018Z,28.77
2019-04-28T19:00:57.948Z,37.98
2019-04-28T19:03:27.396Z,27.42
2019-04-28T19:05:56.964Z,28.92
2019-04-28T19:08:48.041Z,28.75
2019-04-28T19:11:12.187Z,26.52
2019-04-28T19:13:49.627Z,35.05
2019-04-28T19:16:37.518Z,37.40
2019-04-28T19:19:09.184Z,29.87
2019-04-28T19:21:38.630Z,25.37
2019-04-28T19:24:08.533Z,62.55
2019-04-28T19:26:38.011Z,44.03
2019-04-28T19:29:07.612Z,34.40
2019-04-28T19:31:38.998Z,33.55
2019-04-28T19:34:08.489Z,27.55
2019-04-28T19:36:38.200Z,32.00
2019-04-28T19:39:07.880Z,30.03
2019-04-28T19:41:37.365Z,44.60
2019-04-28T19:44:07.183Z,36.08
2019-04-28T19:46:36.668Z,35.43
2019-04-28T19:49:06.576Z,36.98
2019-04-28T19:51:36.010Z,32.05
2019-04-28T19:54:05.428Z,34.45
2019-04-28T19:56:40.223Z,36.33
2019-04-28T19:59:14.451Z,36.87
2019-04-28T20:01:44.601Z,36.73
2019-04-28T20:04:14.281Z,37.33
2019-04-28T20:06:43.722Z,41.97
2019-04-28T20:09:13.322Z,37.65
2019-04-28T20:11:43.085Z,42.47
2019-04-28T20:14:12.627Z,35.55
2019-04-28T20:16:42.078Z,39.35
2019-04-28T20:19:11.865Z,64.25
2019-04-28T20:21:41.431Z,40.43
2019-04-28T20:24:11.218Z,44.85
2019-04-28T20:26:40.654Z,45.20
2019-04-28T20:29:10.580Z,50.05
2019-04-28T20:31:40.058Z,49.55
2019-04-28T20:34:09.512Z,46.73
2019-04-28T20:36:46.750Z,48.13
2019-04-28T20:39:24.789Z,49.18
2019-04-28T20:41:54.327Z,50.03
2019-04-28T20:44:23.887Z,46.00
2019-04-28T20:46:53.773Z,48.20
2019-04-28T20:49:23.248Z,46.98
2019-04-28T20:51:52.692Z,45.33
2019-04-28T20:54:22.371Z,43.58
2019-04-28T20:56:51.815Z,42.95
2019-04-28T20:59:21.275Z,44.15
2019-04-28T21:01:50.843Z,49.93
2019-04-28T21:04:20.299Z,43.20
2019-04-28T21:06:49.735Z,50.70
2019-04-28T21:09:19.338Z,48.28
2019-04-28T21:11:48.794Z,39.93
2019-04-28T21:14:20.633Z,41.65
2019-04-28T21:16:49.389Z,46.33
2019-04-28T21:19:18.802Z,46.40
2019-04-28T21:21:48.655Z,45.05
2019-04-28T21:24:18.149Z,45.12
2019-04-28T21:26:48.548Z,44.05
2019-04-28T21:29:18.165Z,42.78
2019-04-28T21:31:47.619Z,44.10
2019-04-28T21:34:17.081Z,45.10
2019-04-28T21:36:46.583Z,43.65
2019-04-28T21:39:16.045Z,45.48
2019-04-28T21:41:45.513Z,43.50
2019-04-28T21:44:24.881Z,41.43
2019-04-28T21:47:10.633Z,42.13
2019-04-28T21:49:41.425Z,38.65
2019-04-28T21:52:10.887Z,42.15
2019-04-28T21:54:40.650Z,46.80
2019-04-28T21:57:10.048Z,44.77
2019-04-28T21:59:39.493Z,43.20
2019-04-28T22:02:09.643Z,47.03
2019-04-28T22:04:39.048Z,48.70
2019-04-28T22:07:08.699Z,48.42
2019-04-28T22:09:38.126Z,47.63
2019-04-28T22:12:07.717Z,53.68
2019-04-28T22:14:37.276Z,46.53
2019-04-28T22:17:06.761Z,49.67
2019-04-28T22:19:36.171Z,50.67
2019-04-28T22:22:05.943Z,62.70
2019-04-28T22:24:49.958Z,61.30
2019-04-28T22:27:27.940Z,60.47
2019-04-28T22:29:57.348Z,63.02
2019-04-28T22:32:26.782Z,58.13
2019-04-28T22:34:56.498Z,54.42
2019-04-28T22:37:26.020Z,56.92
2019-04-28T22:39:55.448Z,55.35
2019-04-28T22:42:25.141Z,53.52
2019-04-28T22:44:54.626Z,54.30
2019-04-28T22:47:24.181Z,52.80
2019-04-28T22:49:53.701Z,56.80
2019-04-28T22:52:23.119Z,53.73
2019-04-28T22:55:11.569Z,53.38
2019-04-28T22:57:59.977Z,62.05
2019-04-28T23:00:48.105Z,58.65
2019-04-28T23:03:29.290Z,59.75
2019-04-28T23:05:59.131Z,63.73
2019-04-28T23:08:28.680Z,60.92
2019-04-28T23:10:58.132Z,57.13
2019-04-28T23:13:27.773Z,60.05
2019-04-28T23:15:57.270Z,55.83
2019-04-28T23:18:27.268Z,61.92
2019-04-28T23:20:59.953Z,60.38
2019-04-28T23:23:29.893Z,56.98
2019-04-28T23:25:59.346Z,64.12
2019-04-28T23:28:29.246Z,62.80
2019-04-28T23:30:58.723Z,61.60
2019-04-28T23:33:28.323Z,64.72
2019-04-28T23:35:57.832Z,57.50
2019-04-28T23:38:27.347Z,62.03
2019-04-28T23:41:23.351Z,64.40
2019-04-28T23:43:52.740Z,65.72
2019-04-28T23:46:23.829Z,60.40
2019-04-28T23:48:53.318Z,59.93
2019-04-28T23:51:31.907Z,60.55
2019-04-28T23:54:06.101Z,60.78
2019-04-28T23:56:35.554Z,64.53
2019-04-28T23:59:05.075Z,68.00
